Hayti, Missouri
Current Conditions -  °F | °C
As of 10:53 PM on Friday 24 Oct 2014 (Local Time) from KHKA Reporting Station
Clear Clear  
Wind Chill: 58°   Ceiling: Unl
Heat Index: 58°   Visibility: 10mi
Dew Point: 55°   Wind: 6mph
Humidity: 90%   Direction: 200°SSW
Pressure: 30.09"   Gusts: NA
Location:  36.23°N, 89.75°W
Report Text: KHKA 250353Z AUTO 20005KT 10SM CLR 14/13 A3009 RMK AO2 SLP187 T01440128
Loading
Personal Weather Stations






























Interactive Weather Map
Tropical Storm Tracking
New forecast layout! Learn more

10-Day Weather Forecast

Advertisements
Track Severe Weather on mobile